Time;durP1;ratioP1;P1;durP2;ratioP2;P2;SDS_P1;SDS_P2;PMS_P1;PMS_P2;Temp;Humidity;BMP_temperature;BMP_pressure;BME280_temperature;BME280_humidity;BME280_pressure;Samples;Min_cycle;Max_cycle;Signal;HPM_P1;HPM_P2
2023/09/05 00:00:12;;;;;;;10.15;9.13;;;;;;;21.16;100.00;104369.66;5156225;27;20160;-73
2023/09/05 00:02:38;;;;;;;9.32;8.30;;;;;;;20.92;100.00;104335.16;5138094;27;20054;-73
2023/09/05 00:05:07;;;;;;;10.50;9.43;;;;;;;21.04;100.00;104390.38;5156756;27;20034;-73
2023/09/05 00:07:37;;;;;;;9.45;8.63;;;;;;;20.84;100.00;104373.94;5156914;27;20026;-73
2023/09/05 00:10:04;;;;;;;10.02;8.95;;;;;;;20.98;100.00;104438.66;5156309;27;20041;-73
2023/09/05 00:12:30;;;;;;;9.70;8.70;;;;;;;21.05;100.00;104466.31;5137415;27;20034;-74
2023/09/05 00:14:55;;;;;;;10.60;9.07;;;;;;;21.02;100.00;104510.31;5137784;27;20409;-72
2023/09/05 00:17:21;;;;;;;9.60;8.70;;;;;;;20.93;100.00;104549.09;5156051;27;20030;-72
2023/09/05 00:19:48;;;;;;;10.05;8.70;;;;;;;20.94;100.00;104576.72;5155468;27;20121;-72
2023/09/05 00:22:13;;;;;;;10.85;8.80;;;;;;;20.99;100.00;104622.47;5156974;27;20029;-73
2023/09/05 00:24:39;;;;;;;10.38;8.93;;;;;;;20.96;100.00;104648.34;5141250;27;20121;-74
2023/09/05 00:27:12;;;;;;;10.10;9.00;;;;;;;20.91;100.00;104657.81;5156987;27;20027;-71
2023/09/05 00:29:39;;;;;;;11.20;8.60;;;;;;;21.00;100.00;104688.03;5157081;27;20018;-73
2023/09/05 00:32:05;;;;;;;9.85;8.85;;;;;;;20.69;100.00;104662.03;5136543;27;20481;-75
2023/09/05 00:34:36;;;;;;;10.88;8.50;;;;;;;20.77;100.00;104679.31;5157117;27;20027;-74
2023/09/05 00:37:03;;;;;;;9.60;8.60;;;;;;;20.82;100.00;104685.41;5137223;27;20106;-74
2023/09/05 00:39:35;;;;;;;9.40;8.52;;;;;;;21.02;100.00;104725.19;5137623;27;20042;-73
2023/09/05 00:42:03;;;;;;;11.98;9.27;;;;;;;21.06;100.00;104730.41;5137154;27;20038;-73
2023/09/05 00:44:29;;;;;;;10.10;8.80;;;;;;;20.85;100.00;104680.22;5137125;27;20083;-74
2023/09/05 00:46:58;;;;;;;12.02;9.05;;;;;;;21.17;100.00;104726.16;5155913;27;20026;-73
2023/09/05 00:49:27;;;;;;;9.65;8.80;;;;;;;20.80;100.00;104643.97;5155475;27;20529;-73
2023/09/05 00:52:01;;;;;;;11.40;8.38;;;;;;;21.27;100.00;104683.03;5155546;27;20054;-72
2023/09/05 00:54:27;;;;;;;10.10;9.10;;;;;;;20.81;100.00;104583.59;5156066;27;20554;-73
2023/09/05 00:56:53;;;;;;;9.00;8.20;;;;;;;20.54;100.00;104500.72;5155643;27;20058;-73
2023/09/05 00:59:21;;;;;;;9.60;8.60;;;;;;;20.89;100.00;104552.56;5155239;27;20031;-73
2023/09/05 01:01:48;;;;;;;9.88;8.60;;;;;;;21.09;100.00;104566.44;5136755;27;20066;-73
2023/09/05 01:04:14;;;;;;;9.75;8.32;;;;;;;21.08;100.00;104559.53;5137402;27;20027;-73
2023/09/05 01:06:49;;;;;;;9.60;8.60;;;;;;;20.78;100.00;104493.00;5136844;27;20500;-73
2023/09/05 01:09:21;;;;;;;9.48;8.45;;;;;;;21.32;100.00;104531.94;5136875;27;20126;-73
2023/09/05 01:11:47;;;;;;;8.80;7.78;;;;;;;20.87;100.00;104430.91;5136883;27;20030;-72
2023/09/05 01:14:13;;;;;;;8.73;7.80;;;;;;;21.19;100.00;104449.06;5136135;27;20046;-73
2023/09/05 01:16:44;;;;;;;10.98;7.82;;;;;;;21.26;100.00;104398.97;5155719;27;20035;-73
2023/09/05 01:19:12;;;;;;;8.02;7.25;;;;;;;20.65;100.00;104274.78;5155217;27;20037;-72
2023/09/05 01:21:45;;;;;;;9.75;7.47;;;;;;;20.86;100.00;104280.81;5154990;27;20030;-72
2023/09/05 01:24:20;;;;;;;9.18;8.10;;;;;;;21.26;100.00;104311.78;5136124;27;20552;-72
2023/09/05 01:26:47;;;;;;;9.07;8.10;;;;;;;21.25;100.00;104241.88;5154920;27;20511;-73
2023/09/05 01:29:15;;;;;;;9.85;7.82;;;;;;;21.22;100.00;104177.16;5154525;27;20106;-73
2023/09/05 01:31:41;;;;;;;10.38;8.02;;;;;;;20.94;100.00;104082.31;5136597;27;20054;-73
2023/09/05 01:34:09;;;;;;;8.27;7.47;;;;;;;21.06;100.00;104079.69;5155107;27;20026;-73
2023/09/05 01:36:34;;;;;;;8.88;7.63;;;;;;;21.03;100.00;104027.97;5135562;27;20054;-72
2023/09/05 01:39:00;;;;;;;8.95;7.53;;;;;;;21.09;100.00;103989.09;5153923;27;20066;-72
2023/09/05 01:41:25;;;;;;;8.95;7.80;;;;;;;21.33;100.00;103983.72;5135609;27;20054;-73
2023/09/05 01:43:50;;;;;;;8.80;7.95;;;;;;;21.43;100.00;103905.91;5155164;27;20023;-73
2023/09/05 01:46:16;;;;;;;9.27;8.07;;;;;;;21.50;100.00;103821.22;5142172;27;20038;-73
2023/09/05 01:48:41;;;;;;;10.13;7.75;;;;;;;20.98;100.00;103716.50;5156935;27;20480;-73
2023/09/05 01:51:07;;;;;;;8.68;7.88;;;;;;;21.17;100.00;103713.72;5153637;27;20034;-73
2023/09/05 01:53:33;;;;;;;8.27;7.47;;;;;;;21.23;100.00;103712.78;5154194;27;20026;-73
2023/09/05 01:55:58;;;;;;;8.25;7.38;;;;;;;21.35;100.00;103739.38;5154092;27;20072;-73
2023/09/05 01:58:24;;;;;;;8.65;7.88;;;;;;;21.00;100.00;103663.84;5154376;27;20035;-73
2023/09/05 02:00:50;;;;;;;9.35;7.30;;;;;;;21.42;100.00;103712.53;5135162;27;20051;-73
2023/09/05 02:03:15;;;;;;;11.25;7.82;;;;;;;21.49;100.00;103697.78;5135746;27;20033;-72
2023/09/05 02:05:41;;;;;;;10.55;7.78;;;;;;;21.48;100.00;103667.56;5135652;27;20027;-72
2023/09/05 02:08:07;;;;;;;11.73;8.35;;;;;;;21.08;100.00;103583.53;5153793;27;20050;-73
2023/09/05 02:10:32;;;;;;;8.18;7.30;;;;;;;21.06;100.00;103601.69;5135292;27;20030;-73
2023/09/05 02:12:58;;;;;;;11.18;7.43;;;;;;;21.28;100.00;103685.09;5153650;27;20030;-73
2023/09/05 02:15:23;;;;;;;9.88;7.57;;;;;;;21.05;100.00;103667.28;5154033;27;20033;-73
2023/09/05 02:17:49;;;;;;;9.30;7.68;;;;;;;21.34;100.00;103739.41;5154072;27;20999;-73
2023/09/05 02:20:14;;;;;;;9.30;6.93;;;;;;;21.28;100.00;103760.19;5135144;27;20473;-73
2023/09/05 02:22:44;;;;;;;8.90;8.00;;;;;;;21.36;100.00;103817.94;5154236;27;20465;-73
2023/09/05 02:25:11;;;;;;;9.35;7.85;;;;;;;21.12;100.00;103831.13;5153710;27;20126;-73
2023/09/05 02:27:37;;;;;;;8.10;7.30;;;;;;;21.28;100.00;103893.13;5142274;27;20096;-73
2023/09/05 02:30:04;;;;;;;8.82;7.40;;;;;;;21.32;100.00;103944.00;5132518;27;20035;-73
2023/09/05 02:32:30;;;;;;;7.88;7.03;;;;;;;21.28;100.00;103944.91;5151422;27;20130;-73
2023/09/05 02:34:56;;;;;;;7.70;7.00;;;;;;;21.30;100.00;103971.66;5153852;27;20097;-74
2023/09/05 02:37:21;;;;;;;7.85;7.00;;;;;;;20.95;100.00;103924.44;5153759;27;20023;-74
2023/09/05 02:39:47;;;;;;;8.93;7.28;;;;;;;21.38;100.00;103998.34;5153089;27;20079;-73
2023/09/05 02:42:12;;;;;;;10.30;7.50;;;;;;;21.44;100.00;104005.19;5153784;27;20053;-73
2023/09/05 02:44:38;;;;;;;8.13;7.32;;;;;;;21.21;100.00;103997.63;5120987;27;20023;-72
2023/09/05 02:47:03;;;;;;;9.13;7.07;;;;;;;21.04;100.00;103990.84;5116073;27;20459;-73
2023/09/05 02:49:30;;;;;;;9.50;7.90;;;;;;;20.92;100.00;104009.03;5134296;27;20067;-73
2023/09/05 02:51:57;;;;;;;9.98;7.28;;;;;;;21.07;100.00;104068.50;5132656;27;20038;-74
2023/09/05 02:54:22;;;;;;;9.38;7.35;;;;;;;20.97;100.00;104092.69;5113243;28;20039;-73
2023/09/05 02:56:47;;;;;;;8.15;7.35;;;;;;;21.36;100.00;104181.41;5131937;27;20417;-73
2023/09/05 02:59:13;;;;;;;8.50;7.25;;;;;;;20.94;100.00;104119.41;5132165;27;20915;-73
2023/09/05 03:01:39;;;;;;;8.80;7.40;;;;;;;21.35;100.00;104189.19;5131779;27;20058;-73
2023/09/05 03:04:06;;;;;;;10.43;7.63;;;;;;;21.06;100.00;104147.00;5114258;27;20476;-74
2023/09/05 03:06:33;;;;;;;10.70;7.40;;;;;;;21.26;100.00;104181.44;5114098;28;20027;-74
2023/09/05 03:08:58;;;;;;;8.27;7.35;;;;;;;20.96;100.00;104142.69;5132091;28;20024;-73
2023/09/05 03:11:24;;;;;;;8.52;7.63;;;;;;;21.33;100.00;104201.28;5114396;28;20054;-72
2023/09/05 03:13:50;;;;;;;8.80;7.78;;;;;;;21.02;100.00;104134.94;5131657;28;20538;-75
2023/09/05 03:16:18;;;;;;;8.90;7.70;;;;;;;21.30;100.00;104184.00;5114374;28;20127;-73
2023/09/05 03:18:44;;;;;;;8.98;7.90;;;;;;;21.27;100.00;104198.72;5132332;28;20102;-72
2023/09/05 03:21:10;;;;;;;8.52;7.72;;;;;;;21.27;100.00;104209.06;5117388;28;20036;-71
2023/09/05 03:23:36;;;;;;;9.05;7.80;;;;;;;20.86;100.00;104162.59;5110932;28;20406;-73
2023/09/05 03:26:01;;;;;;;9.25;7.88;;;;;;;21.28;100.00;104228.91;5093951;28;20039;-75
2023/09/05 03:28:44;;;;;;;8.77;7.88;;;;;;;21.09;100.00;104203.97;5112037;28;20027;-73
2023/09/05 03:31:10;;;;;;;9.88;8.18;;;;;;;21.30;100.00;104253.06;5093673;28;20031;-74
2023/09/05 03:33:35;;;;;;;9.25;8.25;;;;;;;21.50;100.00;104283.22;5112030;28;20032;-74
2023/09/05 03:36:01;;;;;;;10.45;8.70;;;;;;;20.99;100.00;104218.66;5111164;28;20027;-72
2023/09/05 03:38:27;;;;;;;9.18;8.07;;;;;;;21.36;100.00;104290.19;5111849;28;20027;-72
2023/09/05 03:40:55;;;;;;;10.13;8.70;;;;;;;20.94;100.00;104237.63;5117144;28;20031;-72
2023/09/05 03:43:21;;;;;;;9.93;8.38;;;;;;;21.10;100.00;104258.31;5132574;28;20031;-75
2023/09/05 03:45:49;;;;;;;9.82;7.95;;;;;;;21.32;100.00;104308.31;5131897;28;20096;-77
2023/09/05 03:48:15;;;;;;;11.75;8.48;;;;;;;21.10;100.00;104288.53;5113790;28;20028;-76
2023/09/05 03:50:41;;;;;;;8.48;7.68;;;;;;;21.31;100.00;104312.63;5131942;28;20035;-74
2023/09/05 03:53:06;;;;;;;10.00;7.70;;;;;;;21.19;100.00;104302.34;5131528;28;20035;-72
2023/09/05 03:55:34;;;;;;;8.82;7.95;;;;;;;21.35;100.00;104301.38;5131069;28;20068;-73
2023/09/05 03:58:04;;;;;;;9.85;7.63;;;;;;;21.29;100.00;104274.69;5132549;27;20030;-72
2023/09/05 04:00:32;;;;;;;11.50;7.72;;;;;;;21.30;100.00;104264.31;5152845;27;20090;-73
2023/09/05 04:02:59;;;;;;;11.52;8.00;;;;;;;21.04;100.00;104177.22;5152607;27;20026;-75
2023/09/05 04:05:25;;;;;;;8.60;7.70;;;;;;;21.11;100.00;104158.22;5135294;27;20117;-74
2023/09/05 04:07:50;;;;;;;9.98;7.88;;;;;;;21.34;100.00;104192.63;5138419;27;20117;-75
2023/09/05 04:10:16;;;;;;;8.45;7.30;;;;;;;21.23;100.00;104153.84;5138396;27;20118;-78
2023/09/05 04:12:41;;;;;;;9.00;8.10;;;;;;;21.25;100.00;104156.44;5138948;27;20083;-77
2023/09/05 04:15:07;;;;;;;12.32;8.18;;;;;;;21.35;100.00;104143.41;5156387;27;20034;-74
2023/09/05 04:17:33;;;;;;;9.27;8.25;;;;;;;20.75;100.00;104003.94;5138127;27;20062;-77
2023/09/05 04:19:58;;;;;;;11.45;8.80;;;;;;;21.37;100.00;104063.97;5138488;27;20035;-75
2023/09/05 04:22:27;;;;;;;10.50;8.32;;;;;;;21.49;100.00;104016.41;5157013;27;20037;-77
2023/09/05 04:24:54;;;;;;;9.60;8.43;;;;;;;21.43;100.00;103869.66;5138912;27;20107;-79
2023/09/05 04:27:21;;;;;;;9.82;8.82;;;;;;;21.62;100.00;103802.09;5156879;27;20542;-78
2023/09/05 04:29:51;;;;;;;9.55;8.18;;;;;;;21.51;100.00;103634.69;5134431;27;20062;-77
2023/09/05 04:32:26;;;;;;;9.15;8.18;;;;;;;21.54;100.00;103475.78;5132914;27;20026;-74
2023/09/05 04:34:54;;;;;;;11.23;8.55;;;;;;;21.23;100.00;103304.59;5137391;27;20487;-74
2023/09/05 04:37:19;;;;;;;9.60;8.23;;;;;;;20.98;100.00;103173.88;5130125;27;20076;-76
2023/09/05 04:39:44;;;;;;;9.13;7.95;;;;;;;21.30;100.00;102961.81;5145168;27;20023;-77
2023/09/05 04:42:10;;;;;;;9.40;7.93;;;;;;;21.39;100.00;102942.63;5124484;27;20023;-78
2023/09/05 04:44:35;;;;;;;8.68;7.88;;;;;;;21.38;100.00;102921.06;5124473;27;20031;-77
2023/09/05 04:47:20;;;;;;;8.82;7.60;;;;;;;21.40;100.00;102918.41;5130083;27;20117;-75
2023/09/05 04:49:50;;;;;;;10.70;7.35;;;;;;;20.87;100.00;102844.69;5135757;27;20027;-73
2023/09/05 04:52:17;;;;;;;9.15;7.18;;;;;;;20.92;100.00;102867.88;5154910;27;20034;-72
2023/09/05 04:54:42;;;;;;;8.00;7.22;;;;;;;21.33;100.00;102941.03;5154768;27;20515;-73
2023/09/05 04:57:10;;;;;;;9.30;7.68;;;;;;;20.98;100.00;102899.59;5139736;27;20019;-73
2023/09/05 04:59:37;;;;;;;11.40;8.13;;;;;;;21.33;100.00;102994.56;5137032;27;20523;-73
2023/09/05 05:02:04;;;;;;;10.30;7.72;;;;;;;21.21;100.00;102985.34;5155309;27;20051;-73
2023/09/05 05:04:29;;;;;;;8.68;6.90;;;;;;;21.20;100.00;103011.25;5150297;27;20049;-72
2023/09/05 05:06:54;;;;;;;8.52;7.20;;;;;;;20.97;100.00;103022.13;5147044;27;20030;-73
2023/09/05 05:09:20;;;;;;;9.63;7.28;;;;;;;21.09;100.00;103107.28;5154723;27;20050;-72
2023/09/05 05:11:45;;;;;;;8.07;7.22;;;;;;;20.95;100.00;103179.13;5154472;27;20019;-73
2023/09/05 05:14:10;;;;;;;8.55;7.22;;;;;;;20.86;100.00;103906.38;5136487;27;20023;-72
2023/09/05 05:16:36;;;;;;;9.05;7.38;;;;;;;20.99;100.00;104042.63;5135851;27;20049;-73
2023/09/05 05:19:02;;;;;;;10.50;7.93;;;;;;;21.02;100.00;104153.06;5154411;27;20035;-73
2023/09/05 05:21:27;;;;;;;8.68;7.57;;;;;;;20.94;100.00;104211.72;5154999;27;20027;-73
2023/09/05 05:23:52;;;;;;;8.52;7.63;;;;;;;20.76;100.00;104214.41;5154866;27;20497;-74
2023/09/05 05:26:18;;;;;;;10.85;8.13;;;;;;;20.86;100.00;104255.75;5154321;27;20117;-73
2023/09/05 05:28:44;;;;;;;9.75;8.43;;;;;;;20.86;100.00;104284.22;5136372;27;20027;-74
2023/09/05 05:31:15;;;;;;;8.15;7.35;;;;;;;20.91;100.00;104302.34;5154535;27;20454;-75
2023/09/05 05:33:40;;;;;;;9.82;8.00;;;;;;;21.32;100.00;104370.47;5155009;27;20528;-75
2023/09/05 05:36:06;;;;;;;10.68;8.15;;;;;;;21.24;100.00;104357.56;5136627;27;20045;-75
2023/09/05 05:38:31;;;;;;;10.18;8.30;;;;;;;20.75;100.00;104247.16;5136519;27;20033;-74
2023/09/05 05:40:58;;;;;;;9.63;8.70;;;;;;;21.01;100.00;104288.53;5154196;27;20078;-74
2023/09/05 05:43:27;;;;;;;10.90;8.27;;;;;;;21.05;100.00;104293.72;5136048;27;20023;-73
2023/09/05 05:45:52;;;;;;;10.35;8.43;;;;;;;21.43;100.00;104337.66;5136193;27;20401;-73
2023/09/05 05:48:18;;;;;;;12.65;8.57;;;;;;;21.54;100.00;104335.88;5135893;27;20052;-74
2023/09/05 05:50:44;;;;;;;11.40;8.80;;;;;;;21.57;100.00;104328.94;5135832;27;20062;-73
2023/09/05 05:53:09;;;;;;;12.82;8.90;;;;;;;21.58;100.00;104309.97;5154553;27;20030;-74
2023/09/05 05:55:34;;;;;;;11.70;8.73;;;;;;;21.60;100.00;104302.16;5154197;27;20031;-74
2023/09/05 05:58:01;;;;;;;10.73;8.52;;;;;;;21.33;100.00;104209.88;5136449;27;20026;-74
2023/09/05 06:00:29;;;;;;;9.50;8.30;;;;;;;21.77;100.00;104251.09;5152847;27;20058;-73
2023/09/05 06:02:55;;;;;;;11.52;8.07;;;;;;;21.44;100.00;104137.31;5154576;27;20171;-75
2023/09/05 06:05:21;;;;;;;9.43;7.82;;;;;;;21.96;100.00;104164.63;5154316;27;20113;-74
2023/09/05 06:07:47;;;;;;;11.02;8.20;;;;;;;21.81;100.00;104050.66;5135847;27;20076;-74
2023/09/05 06:10:13;;;;;;;10.32;7.82;;;;;;;21.83;100.00;103862.31;5135901;27;20027;-74
2023/09/05 06:12:38;;;;;;;10.18;8.18;;;;;;;22.21;100.00;103771.91;5136078;27;20030;-75
2023/09/05 06:15:04;;;;;;;11.70;8.70;;;;;;;21.95;100.00;103540.72;5154264;27;20057;-75
2023/09/05 06:17:29;;;;;;;10.50;8.38;;;;;;;22.34;100.00;103370.53;5135396;27;20482;-74
2023/09/05 06:19:55;;;;;;;10.77;8.23;;;;;;;22.36;100.00;103019.47;5135546;27;20022;-75
2023/09/05 06:22:20;;;;;;;10.45;8.85;;;;;;;22.37;100.00;102911.41;5135998;27;20023;-75
2023/09/05 06:24:46;;;;;;;10.55;9.50;;;;;;;22.18;100.00;102441.03;5154303;27;20015;-75
2023/09/05 06:27:11;;;;;;;12.63;9.45;;;;;;;22.46;100.00;102423.56;5135937;27;20023;-74
2023/09/05 06:29:37;;;;;;;11.43;9.30;;;;;;;22.52;100.00;102427.66;5135004;27;20458;-75
2023/09/05 06:32:03;;;;;;;12.43;9.85;;;;;;;22.71;100.00;102428.66;5153942;27;20027;-74
2023/09/05 06:34:28;;;;;;;12.57;9.35;;;;;;;23.29;100.00;102410.66;5134956;27;20053;-75
2023/09/05 06:36:55;;;;;;;11.50;9.57;;;;;;;22.49;100.00;102254.84;5135391;27;20058;-75
2023/09/05 06:39:20;;;;;;;12.05;9.13;;;;;;;22.90;100.00;102298.09;5132639;27;20099;-74
2023/09/05 06:41:46;;;;;;;10.20;8.80;;;;;;;22.53;100.00;102214.91;5134649;27;20470;-75
2023/09/05 06:44:11;;;;;;;12.75;9.00;;;;;;;22.20;100.00;102178.28;5135315;27;20118;-74
2023/09/05 06:46:37;;;;;;;13.00;8.70;;;;;;;22.39;100.00;102236.22;5134624;27;20030;-74
2023/09/05 06:49:03;;;;;;;13.02;8.82;;;;;;;22.56;100.00;102247.66;5135049;27;20121;-75
2023/09/05 06:51:31;;;;;;;11.73;8.40;;;;;;;22.35;100.00;102239.84;5153342;27;20037;-75
2023/09/05 06:53:58;;;;;;;10.60;8.00;;;;;;;22.31;100.00;102229.66;5134655;27;20034;-75
2023/09/05 06:56:25;;;;;;;11.25;8.90;;;;;;;22.39;100.00;102220.66;5134436;27;20030;-75
2023/09/05 06:58:50;;;;;;;8.95;8.07;;;;;;;22.67;100.00;102224.75;5135110;27;20107;-75
2023/09/05 07:01:15;;;;;;;9.82;8.10;;;;;;;22.41;100.00;102181.72;5154907;27;20500;-74
2023/09/05 07:03:41;;;;;;;13.00;8.07;;;;;;;22.37;100.00;102174.97;5153478;27;20035;-74
2023/09/05 07:06:06;;;;;;;14.75;8.90;;;;;;;22.16;100.00;102111.91;5133965;27;20479;-74
2023/09/05 07:08:31;;;;;;;12.35;9.18;;;;;;;22.26;100.00;102125.31;5134131;27;20035;-74
2023/09/05 07:10:57;;;;;;;13.02;9.50;;;;;;;22.22;100.00;102093.47;5134018;27;20469;-74
2023/09/05 07:13:22;;;;;;;10.85;9.45;;;;;;;22.44;100.00;102147.88;5152706;27;20033;-74
2023/09/05 07:15:48;;;;;;;10.68;9.43;;;;;;;22.37;100.00;102134.31;5152447;27;20094;-74
2023/09/05 07:18:14;;;;;;;13.20;9.57;;;;;;;22.54;100.00;102135.38;5153222;27;20054;-74
2023/09/05 07:20:40;;;;;;;10.15;8.52;;;;;;;22.22;100.00;102098.66;5153068;27;20035;-74
2023/09/05 07:23:05;;;;;;;9.05;8.13;;;;;;;22.32;100.00;102112.09;5152843;27;20515;-74
2023/09/05 07:25:31;;;;;;;8.98;7.78;;;;;;;22.32;100.00;102118.09;5152369;27;20031;-74
2023/09/05 07:27:57;;;;;;;10.10;8.25;;;;;;;22.46;100.00;102124.47;5152544;27;20027;-74
2023/09/05 07:30:22;;;;;;;12.05;7.70;;;;;;;22.36;100.00;102124.03;5152336;27;20041;-74
2023/09/05 07:32:48;;;;;;;12.73;7.85;;;;;;;22.20;100.00;102110.88;5134168;27;20033;-74
2023/09/05 07:35:14;;;;;;;10.70;7.28;;;;;;;22.35;100.00;102107.63;5136488;27;20028;-74
2023/09/05 07:37:41;;;;;;;12.98;7.63;;;;;;;22.37;100.00;102118.78;5132331;28;20027;-74
2023/09/05 07:40:07;;;;;;;11.20;8.00;;;;;;;21.95;100.00;102029.84;5132485;27;20485;-75
2023/09/05 07:42:33;;;;;;;14.18;7.88;;;;;;;22.72;100.00;102135.44;5113446;28;20036;-74
2023/09/05 07:45:00;;;;;;;12.07;8.00;;;;;;;22.53;100.00;102092.16;5097015;28;20103;-75
2023/09/05 07:47:25;;;;;;;9.77;7.35;;;;;;;22.65;100.00;102097.69;5096834;28;20036;-75
2023/09/05 07:49:51;;;;;;;8.65;7.13;;;;;;;22.76;100.00;102085.09;5096880;28;20055;-74
2023/09/05 07:52:16;;;;;;;10.02;6.82;;;;;;;22.70;100.00;102069.78;5115350;28;20409;-74
2023/09/05 07:54:42;;;;;;;10.02;7.22;;;;;;;22.67;100.00;102043.16;5096475;28;20542;-74
2023/09/05 07:57:07;;;;;;;9.32;6.70;;;;;;;22.64;100.00;102027.75;5115158;28;20088;-75
2023/09/05 07:59:32;;;;;;;10.30;6.93;;;;;;;22.69;100.00;102015.41;5115331;28;20050;-74
2023/09/05 08:01:58;;;;;;;8.55;7.15;;;;;;;22.37;100.00;101959.75;5096355;28;20036;-74
2023/09/05 08:04:23;;;;;;;10.95;6.90;;;;;;;22.86;100.00;102008.50;5097256;28;20490;-74
2023/09/05 08:06:50;;;;;;;9.00;7.25;;;;;;;22.57;100.00;101961.44;5096409;28;20619;-74
2023/09/05 08:09:15;;;;;;;8.88;6.82;;;;;;;22.88;100.00;102003.25;5096663;28;20035;-74
2023/09/05 08:11:41;;;;;;;9.20;6.95;;;;;;;22.35;100.00;101920.09;5115464;28;20537;-76
2023/09/05 08:14:06;;;;;;;8.38;7.28;;;;;;;22.68;100.00;101974.81;5096631;28;20032;-75
2023/09/05 08:16:33;;;;;;;7.90;6.78;;;;;;;22.67;100.00;101940.25;5114980;28;20028;-75
2023/09/05 08:18:59;;;;;;;11.82;6.32;;;;;;;22.83;100.00;101958.53;5117436;28;20116;-75
2023/09/05 08:21:26;;;;;;;9.70;6.88;;;;;;;22.52;100.00;101883.88;5106254;28;20027;-75
2023/09/05 08:23:52;;;;;;;11.27;6.65;;;;;;;23.16;100.00;101951.72;5127351;28;20500;-76
2023/09/05 08:26:18;;;;;;;10.52;6.70;;;;;;;22.90;100.00;101889.84;5117951;28;20077;-75
2023/09/05 08:28:45;;;;;;;9.73;6.80;;;;;;;23.57;100.00;101947.13;5115138;28;20020;-75
2023/09/05 08:31:11;;;;;;;8.38;6.40;;;;;;;23.55;100.00;101935.97;5114842;28;20406;-74
2023/09/05 08:33:37;;;;;;;9.77;6.53;;;;;;;23.83;100.00;101944.88;5114267;28;20043;-74
2023/09/05 08:36:05;;;;;;;10.10;6.30;;;;;;;23.51;100.00;101944.84;5095854;28;20450;-74
2023/09/05 08:38:30;;;;;;;12.18;6.63;;;;;;;23.55;100.00;101926.41;5096055;28;20031;-74
2023/09/05 08:41:02;;;;;;;11.13;6.05;;;;;;;23.93;100.00;101921.84;5114053;28;20041;-74
2023/09/05 08:43:28;;;;;;;10.38;6.35;;;;;;;24.09;100.00;101913.19;5096572;28;20034;-74
2023/09/05 08:45:54;;;;;;;9.75;5.90;;;;;;;23.97;100.00;101840.19;5114212;28;20028;-74
2023/09/05 08:48:20;;;;;;;9.98;6.13;;;;;;;23.87;100.00;101741.09;5096008;28;20055;-74
2023/09/05 08:50:54;;;;;;;10.75;6.70;;;;;;;24.37;100.00;101759.09;5113803;28;20470;-74
2023/09/05 08:53:27;;;;;;;12.13;6.60;;;;;;;24.44;100.00;101724.03;5113156;28;20441;-74
2023/09/05 08:55:52;;;;;;;9.55;5.95;;;;;;;24.27;100.00;101673.88;5095847;28;20331;-74
2023/09/05 08:58:18;;;;;;;8.85;5.50;;;;;;;24.18;100.00;101651.03;5095619;28;20038;-74
2023/09/05 09:00:46;;;;;;;7.65;5.68;;;;;;;24.24;100.00;101645.47;5113566;28;20068;-73
2023/09/05 09:03:11;;;;;;;10.05;6.15;;;;;;;24.35;100.00;101632.66;5095568;28;20043;-73
2023/09/05 09:05:37;;;;;;;6.72;5.55;;;;;;;24.29;100.00;101591.41;5114097;28;20039;-73
2023/09/05 09:08:03;;;;;;;9.05;5.55;;;;;;;24.49;100.00;101602.31;5098497;28;20030;-73
2023/09/05 09:10:29;;;;;;;11.20;5.47;;;;;;;24.62;100.00;101600.66;5097351;28;20035;-74
2023/09/05 09:13:13;;;;;;;10.82;6.18;;;;;;;24.90;100.00;101598.06;5096414;28;20473;-73
2023/09/05 09:15:41;;;;;;;8.07;5.57;;;;;;;24.58;100.00;101567.13;5095752;28;20470;-74
2023/09/05 09:18:20;;;;;;;7.10;5.57;;;;;;;24.58;100.00;101561.91;5095798;28;20046;-74
2023/09/05 09:20:47;;;;;;;8.15;5.30;;;;;;;24.62;100.00;101572.03;5097205;28;20028;-74
2023/09/05 09:23:13;;;;;;;7.70;5.25;;;;;;;24.30;100.00;101499.47;4765075;27;9999622;-74
2023/09/05 09:25:48;;;;;;;9.63;5.18;;;;;;;24.43;100.00;101547.22;5113641;27;20054;-74
2023/09/05 09:28:28;;;;;;;7.88;5.40;;;;;;;24.30;100.00;101518.53;5114496;27;20031;-74
2023/09/05 09:31:11;;;;;;;6.72;5.60;;;;;;;24.44;100.00;101549.75;5114502;27;20023;-76
2023/09/05 09:33:40;;;;;;;6.13;5.20;;;;;;;24.52;100.00;101544.09;5133845;27;20027;-72
2023/09/05 09:36:07;;;;;;;6.18;5.50;;;;;;;24.55;100.00;101546.47;5114828;27;20023;-75
2023/09/05 09:38:33;;;;;;;8.02;5.60;;;;;;;24.44;100.00;101538.50;5105037;28;20042;-73
2023/09/05 09:41:01;;;;;;;9.07;5.40;;;;;;;24.33;100.00;101533.94;5118917;27;20459;-72
2023/09/05 09:43:30;;;;;;;11.90;5.30;;;;;;;24.44;100.00;101530.69;5115012;27;20127;-73
2023/09/05 09:46:00;;;;;;;9.00;5.10;;;;;;;24.48;100.00;101545.19;5114948;27;20062;-74
2023/09/05 09:48:28;;;;;;;7.20;5.85;;;;;;;23.95;100.00;101502.38;5114691;27;20031;-75
2023/09/05 09:50:55;;;;;;;10.77;5.63;;;;;;;23.84;100.00;101493.56;5133463;27;20031;-74
2023/09/05 09:53:29;;;;;;;10.52;5.15;;;;;;;23.90;100.00;101516.59;5115684;27;20470;-75
2023/09/05 09:55:55;;;;;;;9.27;5.40;;;;;;;23.80;100.00;101525.84;5114408;27;20454;-74
2023/09/05 09:58:24;;;;;;;10.52;5.85;;;;;;;23.88;100.00;101560.84;5114939;27;20053;-75
2023/09/05 10:00:51;;;;;;;7.28;5.55;;;;;;;23.86;100.00;101574.84;5111136;28;20059;-75
2023/09/05 10:03:16;;;;;;;8.65;5.68;;;;;;;23.37;100.00;101503.25;5093666;28;20035;-75
2023/09/05 10:05:43;;;;;;;7.45;5.68;;;;;;;23.53;100.00;101537.81;5094280;28;20482;-76
2023/09/05 10:08:12;;;;;;;10.35;5.50;;;;;;;23.77;100.00;101589.19;5094405;28;20027;-75
2023/09/05 10:10:41;;;;;;;7.18;6.00;;;;;;;23.72;100.00;101599.03;5112639;28;20027;-76
2023/09/05 10:13:11;;;;;;;10.38;5.82;;;;;;;23.62;100.00;101616.06;5112370;28;20035;-74
2023/09/05 10:15:39;;;;;;;10.13;5.88;;;;;;;23.54;100.00;101670.19;5112524;28;20023;-75
2023/09/05 10:18:09;;;;;;;7.55;5.78;;;;;;;23.58;100.00;101669.09;5112725;28;20027;-75
2023/09/05 10:20:37;;;;;;;8.10;5.45;;;;;;;23.09;100.00;101637.13;5112392;28;20043;-75
2023/09/05 10:23:05;;;;;;;10.13;6.20;;;;;;;23.54;100.00;101710.91;5094566;28;20032;-76
2023/09/05 10:25:31;;;;;;;6.95;5.85;;;;;;;23.52;100.00;101729.16;5094428;28;20467;-75
2023/09/05 10:27:57;;;;;;;6.45;5.78;;;;;;;23.70;100.00;101751.56;5094183;28;20032;-75
2023/09/05 10:30:22;;;;;;;9.32;5.93;;;;;;;23.01;100.00;101696.38;5112746;28;20031;-78
2023/09/05 10:32:48;;;;;;;9.90;5.97;;;;;;;23.25;100.00;101735.81;5112839;28;20032;-78
2023/09/05 10:35:19;;;;;;;9.32;5.95;;;;;;;23.14;100.00;101795.19;5112760;28;20035;-77
2023/09/05 10:38:05;;;;;;;7.15;6.05;;;;;;;23.22;100.00;101842.38;5094618;28;20062;-77
2023/09/05 10:40:33;;;;;;;6.90;6.20;;;;;;;23.22;100.00;101881.31;5094206;28;20074;-77
2023/09/05 10:43:01;;;;;;;10.43;6.70;;;;;;;23.26;100.00;101917.47;5094898;28;20027;-76
2023/09/05 10:45:27;;;;;;;8.40;6.40;;;;;;;22.99;100.00;101943.91;5094437;28;20048;-76
2023/09/05 10:47:58;;;;;;;10.45;6.45;;;;;;;22.66;100.00;101914.38;5094545;28;20118;-75
2023/09/05 10:50:23;;;;;;;10.10;6.50;;;;;;;22.81;100.00;102010.50;5112681;28;20073;-76
2023/09/05 10:53:10;;;;;;;8.43;6.43;;;;;;;22.90;100.00;102040.34;5112404;28;20020;-77
2023/09/05 10:55:43;;;;;;;7.72;6.38;;;;;;;22.34;100.00;102020.38;5113155;28;20059;-77
2023/09/05 10:58:40;;;;;;;7.25;6.53;;;;;;;22.79;100.00;102105.72;5094262;28;20028;-76
2023/09/05 11:01:29;;;;;;;8.52;6.97;;;;;;;22.82;100.00;102105.56;5107675;27;20046;-77
2023/09/05 11:04:03;;;;;;;8.90;6.80;;;;;;;22.28;100.00;102111.38;5108474;28;20499;-76
2023/09/05 11:06:28;;;;;;;8.20;6.63;;;;;;;22.25;100.00;102215.19;5132359;27;20062;-75
2023/09/05 11:08:59;;;;;;;11.55;6.95;;;;;;;22.39;100.00;102293.28;5114180;28;20085;-75
2023/09/05 11:11:24;;;;;;;10.50;7.13;;;;;;;22.62;100.00;102405.69;5132601;27;20552;-74
2023/09/05 11:13:50;;;;;;;10.93;7.40;;;;;;;22.40;100.00;102437.56;5113714;28;20119;-75